Wednesday, May 23, 2018, 1:07 AM EDT
Back to Local

KALB, Albany International Airport

Location: Latham, NY, United States Lat: 42.75
Local Time: 1:07 AM EDT ( 5:07 GMT) Lon: -73.8
Time Zone: US/Eastern Elev: 285 ft

Show me the last for .
Show Decoded

2018-05-23 00:51 METAR KALB 230451Z 18008KT 10SM FEW009 OVC023 14/11 A2990 RMK AO2 SLP126 OVC V
                 BKN T01390111 401720128 $ =
2018-05-22 23:51 METAR KALB 230351Z 18009KT 10SM OVC025 14/11 A2992 RMK AO2 RAE06 SLP132 P0000
                 T01390111 $ =
2018-05-22 22:51 METAR KALB 230251Z 17010KT 10SM -RA BKN027 BKN043 OVC100 14/11 A2992 RMK AO2
                 RAB14 SLP133 P0000 60000 T01390106 56007 $ =
2018-05-22 22:19 METAR KALB 230219Z 17010G18KT 9SM -RA BKN029 OVC065 14/10 A2994 RMK AO2 RAB14
                 P0000 T01440100 $ =
2018-05-22 21:51 METAR KALB 230151Z 18011G17KT 10SM FEW029 BKN060 OVC240 14/10 A2994 RMK AO2
                 SLP137 T01440100 =
2018-05-22 20:51 METAR KALB 230051Z 17015G20KT 10SM BKN032 BKN044 BKN075 OVC240 14/09 A2993 RMK
                 AO2 SLP136 T01440094 =
2018-05-22 19:51 METAR KALB 222351Z 18012KT 10SM FEW025 BKN034 OVC050 15/09 A2995 RMK AO2 SLP141
                 60003 T01500094 10172 20150 58010 =
2018-05-22 18:51 METAR KALB 222251Z 17016G21KT 10SM FEW025 BKN041 OVC048 16/09 A2995 RMK AO2
                 RAE25 SLP144 BINOVC P0000 T01560094 =
2018-05-22 17:51 METAR KALB 222151Z 18012G20KT 10SM -RA SCT025 BKN045 OVC055 17/12 A2997 RMK AO2
                 SLP148 SCT V FEW P0001 T01670122 =
2018-05-22 16:51 METAR KALB 222051Z 16010G17KT 8SM -RA FEW014 OVC049 17/14 A2998 RMK AO2 SLP151
                 P0002 60002 T01670139 58030 =
2018-05-22 15:51 METAR KALB 221951Z 15006KT 10SM -RA FEW014 SCT040 OVC055 17/13 A3001 RMK AO2
                 RAE00B21 SLP162 PCPN VRY LGT P0000 T01670133 =
2018-05-22 14:51 METAR KALB 221851Z 16005KT 10SM -RA FEW014 SCT040 OVC060 16/13 A3005 RMK AO2
                 RAB15E28B47 SLP176 FEW V SCT P0000 T01610133 =
2018-05-22 13:51 METAR KALB 221751Z 13005KT 7SM FEW011 SCT040 OVC060 16/13 A3007 RMK AO2 RAE49
                 SLP182 PRESENT WX VCSH P0002 60009 T01610133 10167 20144 58016 =
2018-05-22 12:51 METAR KALB 221651Z 17007KT 3SM -RA FEW012 BKN040 OVC060 16/13 A3010 RMK AO2
                 SLP193 P0004 T01560133 =
2018-05-22 11:51 METAR KALB 221551Z 19003KT 3SM -RA FEW045 BKN060 OVC080 16/12 A3012 RMK AO2 SFC
                 VIS 4 SLP202 P0003 T01610122 =
2018-05-22 10:51 METAR KALB 221451Z 00000KT 10SM -RA FEW050 BKN070 OVC090 16/11 A3011 RMK AO2
                 SLP197 P0000 60000 T01610111 55012 =
2018-05-22 09:51 METAR KALB 221351Z 17006KT 10SM -RA FEW050 SCT065 BKN090 OVC130 17/11 A3011 RMK
                 AO2 RAE03B24 SLP196 P0000 T01670106 =
2018-05-22 08:51 METAR KALB 221251Z VRB04KT 10SM -RA FEW038 SCT050 BKN080 OVC130 17/11 A3013 RMK
                 AO2 SLP202 P0000 T01670106 =
2018-05-22 07:51 METAR KALB 221151Z 25008KT 10SM -RA SCT070 BKN090 OVC120 14/09 A3015 RMK AO2
                 RAB39 SLP208 P0000 60000 T01440094 10161 20133 53004 =
2018-05-22 06:51 METAR KALB 221051Z 00000KT 10SM SCT120 BKN140 OVC160 14/09 A3014 RMK AO2 SLP204
                 VIRGA ALQDS T01440094 =
2018-05-22 05:51 METAR KALB 220951Z 19004KT 10SM OVC140 13/09 A3014 RMK AO2 SLP204 VIRGA ALQDS
                 T01330094 =
2018-05-22 04:51 METAR KALB 220851Z 00000KT 10SM BKN140 OVC170 14/09 A3014 RMK AO2 SLP205
                 T01390089 57004 =
2018-05-22 03:51 METAR KALB 220751Z 00000KT 10SM BKN170 OVC260 14/09 A3015 RMK AO2 SLP208
                 T01440089 =
2018-05-22 02:51 METAR KALB 220651Z 00000KT 10SM BKN170 OVC260 15/09 A3014 RMK AO2 SLP206
                 T01500089 =
2018-05-22 01:51 METAR KALB 220551Z 19003KT 10SM BKN170 OVC260 14/09 A3015 RMK AO2 SLP209
                 T01390089 10222 20128 51004 =

Support USWX by starting your Amazon purchase here.